createdAt,value
2022-08-22T00:00:27.192Z,17.24
2022-08-22T00:01:25.516Z,17.28
2022-08-22T00:02:13.994Z,17.25
2022-08-22T00:02:45.055Z,20.84
2022-08-22T00:02:45.526Z,20.09
2022-08-22T00:02:45.978Z,19.33
2022-08-22T00:02:48.677Z,19.60
2022-08-22T00:02:49.028Z,19.19
2022-08-22T00:02:49.863Z,17.66
2022-08-22T00:02:54.637Z,17.72
2022-08-22T00:02:54.875Z,17.59
2022-08-22T00:02:58.023Z,17.42
2022-08-22T00:02:59.714Z,20.79
2022-08-22T00:02:59.904Z,19.75
2022-08-22T00:03:08.536Z,17.36
2022-08-22T00:03:11.261Z,19.31
2022-08-22T00:03:12.286Z,17.31
2022-08-22T00:03:15.146Z,17.40
2022-08-22T00:03:58.228Z,17.11
2022-08-22T00:04:55.923Z,17.10
2022-08-22T00:05:41.304Z,17.09
2022-08-22T00:06:29.240Z,17.13
2022-08-22T00:07:10.649Z,17.07
2022-08-22T00:08:00.666Z,17.08
2022-08-22T00:08:58.493Z,17.16
2022-08-22T00:10:05.193Z,17.01
2022-08-22T00:11:02.549Z,16.95
2022-08-22T00:12:03.160Z,16.95
2022-08-22T00:12:45.795Z,17.00
2022-08-22T00:14:01.589Z,17.05
2022-08-22T00:15:01.533Z,16.97
2022-08-22T00:15:43.221Z,16.97
2022-08-22T00:16:21.287Z,16.94
2022-08-22T00:17:00.525Z,16.88
2022-08-22T00:17:44.319Z,16.83
2022-08-22T00:18:28.282Z,16.76
2022-08-22T00:19:22.936Z,16.86
2022-08-22T00:20:08.725Z,16.87
2022-08-22T00:21:06.310Z,16.81
2022-08-22T00:22:54.180Z,16.75
2022-08-22T00:23:41.738Z,16.71
2022-08-22T00:24:41.090Z,16.71
2022-08-22T00:25:42.486Z,16.63
2022-08-22T00:26:16.978Z,16.56
2022-08-22T00:26:56.448Z,16.64
2022-08-22T00:27:53.416Z,16.63
2022-08-22T00:28:28.649Z,16.60
2022-08-22T00:29:08.780Z,16.69
2022-08-22T00:29:46.062Z,16.74
2022-08-22T00:30:18.407Z,16.76
2022-08-22T00:31:08.080Z,16.79
2022-08-22T00:31:55.981Z,16.76
2022-08-22T00:32:35.385Z,16.76
2022-08-22T00:33:18.268Z,16.67
2022-08-22T00:33:56.631Z,16.68
2022-08-22T00:34:48.586Z,16.74
2022-08-22T00:35:29.434Z,16.79
2022-08-22T00:36:31.979Z,16.72
2022-08-22T00:37:15.729Z,16.71
2022-08-22T00:38:02.817Z,16.71
2022-08-22T00:38:44.613Z,16.69
2022-08-22T00:39:34.372Z,16.79
2022-08-22T00:40:27.943Z,16.81
2022-08-22T00:41:22.582Z,16.72
2022-08-22T00:41:56.931Z,16.67
2022-08-22T00:43:03.611Z,16.80
2022-08-22T00:44:22.586Z,16.63
2022-08-22T00:45:36.209Z,16.62
2022-08-22T00:46:43.106Z,16.56
2022-08-22T00:47:34.045Z,16.56
2022-08-22T00:48:32.960Z,16.55
2022-08-22T00:49:19.951Z,16.48
2022-08-22T00:50:06.828Z,16.47
2022-08-22T00:50:57.154Z,16.35
2022-08-22T00:51:56.819Z,16.42
2022-08-22T00:52:54.091Z,16.54
2022-08-22T00:53:43.377Z,16.49
2022-08-22T00:54:35.141Z,16.49
2022-08-22T00:55:55.266Z,16.43
2022-08-22T00:56:46.018Z,16.44
2022-08-22T00:57:42.187Z,16.25
2022-08-22T00:58:29.012Z,16.28
2022-08-22T00:59:26.941Z,16.28
2022-08-22T01:00:13.845Z,16.28
2022-08-22T01:00:55.633Z,16.34
2022-08-22T01:01:36.033Z,16.35
2022-08-22T01:02:29.473Z,16.30
2022-08-22T01:03:16.966Z,16.35
2022-08-22T01:04:31.851Z,16.34
2022-08-22T01:05:37.085Z,16.42
2022-08-22T01:06:32.567Z,16.44
2022-08-22T01:07:37.982Z,16.50
2022-08-22T01:08:39.143Z,16.45
2022-08-22T01:09:41.355Z,16.40
2022-08-22T01:10:22.271Z,16.35
2022-08-22T01:11:16.997Z,16.44
2022-08-22T01:12:25.204Z,16.55
2022-08-22T01:13:31.352Z,16.41
2022-08-22T01:14:11.244Z,16.42
2022-08-22T01:15:06.355Z,16.45
2022-08-22T01:15:39.653Z,16.39
2022-08-22T01:16:26.208Z,16.49
2022-08-22T01:16:58.478Z,16.47
2022-08-22T01:17:52.281Z,16.47
2022-08-22T01:18:34.007Z,16.54
2022-08-22T01:19:49.319Z,16.45
2022-08-22T01:20:54.614Z,16.44
2022-08-22T01:21:54.818Z,16.22
2022-08-22T01:22:42.619Z,16.31
2022-08-22T01:23:51.149Z,16.59
2022-08-22T01:25:09.010Z,16.55
2022-08-22T01:26:19.505Z,16.41
2022-08-22T01:27:42.075Z,16.37
2022-08-22T01:28:58.008Z,16.42
2022-08-22T01:29:54.393Z,16.33
2022-08-22T01:30:59.640Z,16.40
2022-08-22T01:31:45.292Z,16.40
2022-08-22T01:32:31.620Z,16.36
2022-08-22T01:33:34.673Z,16.36
2022-08-22T01:34:31.819Z,16.51
2022-08-22T01:35:16.051Z,16.52
2022-08-22T01:36:28.602Z,16.61
2022-08-22T01:37:19.001Z,16.60
2022-08-22T01:37:53.760Z,16.41
2022-08-22T01:38:51.707Z,16.43
2022-08-22T01:39:43.274Z,16.33
2022-08-22T01:40:53.578Z,16.31
2022-08-22T01:42:03.720Z,16.45
2022-08-22T01:42:56.667Z,16.43
2022-08-22T01:43:59.868Z,16.26
2022-08-22T01:44:51.100Z,16.22
2022-08-22T01:45:37.738Z,16.13
2022-08-22T01:46:22.219Z,16.20
2022-08-22T01:47:00.818Z,16.25
2022-08-22T01:47:50.584Z,16.32
2022-08-22T01:48:45.953Z,16.31
2022-08-22T01:49:29.541Z,16.23
2022-08-22T01:50:32.887Z,16.10
2022-08-22T01:51:20.962Z,16.19
2022-08-22T01:51:58.554Z,16.25
2022-08-22T01:52:35.909Z,16.27
2022-08-22T01:53:36.846Z,16.32
2022-08-22T01:54:20.383Z,16.25
2022-08-22T01:55:02.125Z,16.26
2022-08-22T01:55:57.653Z,16.26
2022-08-22T01:56:39.068Z,16.29
2022-08-22T01:57:12.514Z,16.22
2022-08-22T01:57:54.557Z,16.25
2022-08-22T01:58:33.450Z,16.26
2022-08-22T01:59:11.073Z,16.13
2022-08-22T01:59:57.621Z,16.21
2022-08-22T02:00:35.127Z,16.24
2022-08-22T02:01:28.974Z,16.28
2022-08-22T02:02:14.230Z,16.23
2022-08-22T02:03:23.375Z,16.31
2022-08-22T02:03:59.567Z,16.25
2022-08-22T02:04:49.564Z,16.14
2022-08-22T02:05:28.520Z,16.09
2022-08-22T02:06:09.059Z,16.15
2022-08-22T02:07:29.159Z,16.16
2022-08-22T02:08:21.707Z,16.03
2022-08-22T02:09:14.542Z,16.00
2022-08-22T02:10:18.468Z,15.97
2022-08-22T02:11:03.311Z,16.00
2022-08-22T02:11:48.880Z,16.08
2022-08-22T02:12:32.681Z,16.07
2022-08-22T02:13:43.497Z,16.02
2022-08-22T02:14:43.582Z,16.18
2022-08-22T02:15:25.103Z,16.22
2022-08-22T02:16:21.077Z,15.96
2022-08-22T02:16:59.347Z,16.02
2022-08-22T02:18:01.090Z,16.11
2022-08-22T02:18:47.459Z,16.08
2022-08-22T02:19:31.143Z,16.08
2022-08-22T02:20:22.906Z,15.96
2022-08-22T02:21:08.876Z,15.90
2022-08-22T02:21:56.485Z,15.89
2022-08-22T02:22:44.593Z,15.90
2022-08-22T02:23:25.004Z,15.84
2022-08-22T02:24:06.682Z,15.97
2022-08-22T02:24:49.543Z,15.99
2022-08-22T02:25:26.977Z,15.92
2022-08-22T02:26:01.500Z,15.99
2022-08-22T02:26:52.827Z,16.09
2022-08-22T02:27:45.832Z,16.07
2022-08-22T02:28:41.094Z,16.06
2022-08-22T02:29:40.317Z,15.94
2022-08-22T02:30:29.006Z,15.89
2022-08-22T02:31:16.951Z,15.92
2022-08-22T02:31:56.422Z,15.94
2022-08-22T02:32:38.278Z,15.91
2022-08-22T02:33:24.820Z,15.83
2022-08-22T02:33:59.277Z,15.68
2022-08-22T02:34:48.947Z,15.66
2022-08-22T02:35:35.179Z,15.73
2022-08-22T02:36:31.257Z,15.87
2022-08-22T02:37:29.678Z,15.85
2022-08-22T02:38:25.587Z,15.84
2022-08-22T02:39:07.920Z,15.64
2022-08-22T02:40:04.561Z,15.62
2022-08-22T02:40:44.777Z,15.68
2022-08-22T02:41:25.353Z,15.69
2022-08-22T02:42:28.590Z,15.86
2022-08-22T02:43:15.822Z,15.79
2022-08-22T02:44:13.643Z,15.71
2022-08-22T02:45:17.141Z,15.88
2022-08-22T02:46:02.064Z,16.01
2022-08-22T02:46:51.921Z,15.87
2022-08-22T02:47:32.949Z,15.86
2022-08-22T02:48:32.519Z,15.82
2022-08-22T02:49:16.767Z,15.93
2022-08-22T02:50:17.758Z,15.90
2022-08-22T02:51:10.601Z,15.89
2022-08-22T02:52:12.640Z,15.76
2022-08-22T02:52:44.297Z,15.83
2022-08-22T02:53:53.124Z,15.89
2022-08-22T02:54:45.137Z,15.91
2022-08-22T02:55:29.700Z,16.00
2022-08-22T02:56:27.363Z,15.99
2022-08-22T02:57:02.137Z,16.00
2022-08-22T02:57:43.750Z,15.95
2022-08-22T02:58:29.135Z,15.85
2022-08-22T02:59:22.581Z,15.94
2022-08-22T03:00:31.425Z,15.94
2022-08-22T03:01:33.287Z,15.94
2022-08-22T03:02:28.530Z,15.99
2022-08-22T03:03:21.158Z,15.96
2022-08-22T03:04:31.011Z,15.88
2022-08-22T03:05:16.071Z,15.69
2022-08-22T03:06:05.399Z,15.70
2022-08-22T03:06:42.543Z,15.75
2022-08-22T03:07:20.033Z,15.75
2022-08-22T03:08:04.632Z,15.81
2022-08-22T03:08:42.917Z,15.82
2022-08-22T03:09:29.822Z,15.74
2022-08-22T03:10:13.709Z,15.70
2022-08-22T03:11:31.053Z,15.67
2022-08-22T03:12:35.970Z,15.58
2022-08-22T03:13:17.028Z,15.54
2022-08-22T03:14:08.366Z,15.55
2022-08-22T03:14:55.171Z,15.44
2022-08-22T03:15:39.451Z,15.41
2022-08-22T03:16:44.037Z,15.42
2022-08-22T03:17:23.935Z,15.51
2022-08-22T03:18:04.100Z,15.55
2022-08-22T03:18:41.664Z,15.62
2022-08-22T03:19:25.051Z,15.66
2022-08-22T03:20:15.622Z,15.65
2022-08-22T03:20:53.996Z,15.61
2022-08-22T03:21:47.879Z,15.55
2022-08-22T03:22:54.296Z,15.50
2022-08-22T03:23:36.199Z,15.30
2022-08-22T03:24:07.920Z,15.28
2022-08-22T03:24:44.014Z,15.30
2022-08-22T03:25:39.040Z,15.43
2022-08-22T03:26:33.364Z,15.46
2022-08-22T03:27:27.756Z,15.55
2022-08-22T03:28:32.027Z,15.52
2022-08-22T03:29:09.588Z,15.55
2022-08-22T03:29:53.968Z,15.51
2022-08-22T03:31:03.594Z,15.55
2022-08-22T03:31:36.489Z,15.55
2022-08-22T03:32:21.858Z,15.55
2022-08-22T03:32:55.974Z,15.52
2022-08-22T03:33:31.620Z,15.52
2022-08-22T03:34:22.894Z,15.44
2022-08-22T03:35:09.264Z,15.35
2022-08-22T03:35:46.697Z,15.37
2022-08-22T03:36:18.542Z,15.42
2022-08-22T03:37:02.363Z,15.41
2022-08-22T03:37:37.776Z,15.43
2022-08-22T03:38:38.787Z,15.32
2022-08-22T03:39:38.899Z,15.40
2022-08-22T03:40:20.095Z,15.39
2022-08-22T03:40:57.610Z,15.33
2022-08-22T03:41:50.019Z,15.33
2022-08-22T03:42:56.026Z,15.36
2022-08-22T03:43:38.673Z,15.39
2022-08-22T03:44:16.662Z,15.35
2022-08-22T03:45:15.283Z,15.23
2022-08-22T03:46:24.169Z,15.23
2022-08-22T03:47:28.639Z,15.16
2022-08-22T03:48:29.995Z,15.12
2022-08-22T03:49:11.438Z,15.05
2022-08-22T03:49:59.711Z,15.11
2022-08-22T03:50:58.710Z,15.08
2022-08-22T03:51:52.621Z,15.11
2022-08-22T03:53:15.540Z,15.21
2022-08-22T03:54:18.955Z,15.11
2022-08-22T03:55:22.671Z,15.19
2022-08-22T03:56:18.758Z,15.16
2022-08-22T03:57:12.186Z,15.17
2022-08-22T03:57:58.120Z,15.01
2022-08-22T03:58:33.113Z,15.04
2022-08-22T03:59:42.760Z,15.02
2022-08-22T04:00:23.719Z,15.01
2022-08-22T04:01:14.459Z,14.97
2022-08-22T04:02:03.182Z,15.01
2022-08-22T04:03:04.947Z,15.06
2022-08-22T04:04:01.657Z,15.15
2022-08-22T04:05:14.073Z,15.02
2022-08-22T04:06:12.826Z,14.96
2022-08-22T04:07:31.617Z,15.00
2022-08-22T04:08:31.731Z,15.02
2022-08-22T04:09:24.805Z,14.97
2022-08-22T04:10:34.815Z,14.97
2022-08-22T04:11:25.234Z,15.07
2022-08-22T04:12:08.084Z,15.13
2022-08-22T04:12:55.985Z,15.17
2022-08-22T04:13:50.123Z,15.17
2022-08-22T04:15:07.392Z,15.14
2022-08-22T04:16:00.328Z,15.16
2022-08-22T04:17:01.099Z,15.09
2022-08-22T04:18:02.328Z,15.29
2022-08-22T04:19:00.496Z,15.28
2022-08-22T04:19:44.439Z,15.19
2022-08-22T04:20:40.413Z,15.25
2022-08-22T04:21:38.683Z,15.30
2022-08-22T04:22:41.911Z,15.16
2022-08-22T04:23:41.088Z,15.16
2022-08-22T04:24:32.376Z,15.14
2022-08-22T04:25:10.730Z,15.17
2022-08-22T04:25:47.573Z,15.25
2022-08-22T04:26:48.024Z,15.35
2022-08-22T04:27:34.006Z,15.32
2022-08-22T04:28:29.795Z,15.33
2022-08-22T04:29:25.540Z,15.33
2022-08-22T04:30:05.783Z,15.39
2022-08-22T04:30:49.345Z,15.36
2022-08-22T04:31:36.582Z,15.41
2022-08-22T04:32:20.349Z,15.31
2022-08-22T04:33:06.545Z,15.35
2022-08-22T04:34:00.534Z,15.39
2022-08-22T04:34:57.419Z,15.40
2022-08-22T04:35:41.115Z,15.36
2022-08-22T04:36:27.550Z,15.41
2022-08-22T04:37:18.100Z,15.42
2022-08-22T04:37:53.244Z,15.45
2022-08-22T04:38:50.597Z,15.52
2022-08-22T04:39:38.722Z,15.63
2022-08-22T04:40:22.046Z,15.64
2022-08-22T04:41:04.877Z,15.61
2022-08-22T04:42:31.867Z,15.66
2022-08-22T04:43:11.690Z,15.66
2022-08-22T04:44:11.073Z,15.68
2022-08-22T04:45:00.909Z,15.60
2022-08-22T04:45:39.547Z,15.65
2022-08-22T04:46:37.304Z,15.62
2022-08-22T04:47:29.552Z,15.66
2022-08-22T04:48:09.490Z,15.68
2022-08-22T04:49:00.827Z,15.76
2022-08-22T04:50:03.119Z,15.80
2022-08-22T04:50:43.448Z,15.78
2022-08-22T04:51:24.889Z,15.76
2022-08-22T04:52:07.396Z,15.84
2022-08-22T04:53:17.110Z,15.89
2022-08-22T04:53:48.802Z,15.88
2022-08-22T04:54:38.833Z,15.98
2022-08-22T04:55:26.541Z,15.81
2022-08-22T04:56:23.039Z,15.76
2022-08-22T04:57:16.361Z,15.71
2022-08-22T04:58:21.059Z,15.71
2022-08-22T04:58:59.280Z,15.67
2022-08-22T04:59:31.421Z,15.70
2022-08-22T05:00:09.254Z,15.78
2022-08-22T05:01:05.766Z,15.82
2022-08-22T05:01:48.388Z,15.83
2022-08-22T05:02:24.299Z,15.88
2022-08-22T05:02:57.885Z,15.88
2022-08-22T05:03:32.543Z,15.89
2022-08-22T05:04:29.158Z,15.76
2022-08-22T05:05:13.468Z,15.90
2022-08-22T05:05:48.651Z,16.06
2022-08-22T05:06:25.528Z,16.09
2022-08-22T05:07:15.927Z,16.05
2022-08-22T05:08:03.176Z,15.98
2022-08-22T05:08:38.785Z,15.85
2022-08-22T05:09:17.382Z,15.79
2022-08-22T05:09:54.183Z,15.87
2022-08-22T05:10:33.471Z,15.99
2022-08-22T05:11:07.787Z,15.99
2022-08-22T05:11:42.420Z,16.22
2022-08-22T05:12:22.184Z,16.39
2022-08-22T05:13:01.278Z,16.53
2022-08-22T05:13:39.681Z,16.62
2022-08-22T05:14:28.292Z,16.65
2022-08-22T05:15:18.970Z,16.84
2022-08-22T05:15:59.376Z,16.80
2022-08-22T05:16:40.821Z,16.84
2022-08-22T05:17:17.093Z,17.17
2022-08-22T05:17:51.729Z,17.35
2022-08-22T05:18:29.572Z,17.44
2022-08-22T05:19:29.578Z,17.42
2022-08-22T05:20:09.517Z,17.80
2022-08-22T05:20:47.434Z,17.62
2022-08-22T05:21:27.787Z,17.89
2022-08-22T05:22:01.125Z,17.94
2022-08-22T05:22:39.943Z,17.99
2022-08-22T05:23:18.421Z,18.03
2022-08-22T05:24:07.189Z,17.89
2022-08-22T05:24:44.885Z,18.06
2022-08-22T05:25:21.175Z,18.25
2022-08-22T05:25:58.773Z,17.97
2022-08-22T05:26:40.705Z,17.87
2022-08-22T05:27:20.208Z,17.83
2022-08-22T05:28:02.027Z,17.87
2022-08-22T05:28:51.313Z,18.11
2022-08-22T05:29:27.768Z,17.97
2022-08-22T05:30:09.621Z,18.26
2022-08-22T05:30:45.863Z,18.28
2022-08-22T05:31:26.368Z,18.07
2022-08-22T05:32:03.753Z,18.17
2022-08-22T05:32:49.376Z,18.18
2022-08-22T05:33:29.966Z,18.05
2022-08-22T05:34:05.934Z,17.69
2022-08-22T05:34:40.956Z,17.81
2022-08-22T05:35:14.280Z,17.82
2022-08-22T05:35:57.957Z,17.67
2022-08-22T05:36:39.167Z,17.42
2022-08-22T05:37:20.570Z,17.53
2022-08-22T05:37:55.196Z,17.77
2022-08-22T05:38:33.979Z,17.86
2022-08-22T05:39:19.231Z,17.79
2022-08-22T05:39:58.346Z,17.88
2022-08-22T05:40:33.418Z,17.83
2022-08-22T05:41:12.033Z,17.86
2022-08-22T05:41:44.824Z,17.87
2022-08-22T05:42:26.737Z,18.10
2022-08-22T05:42:58.959Z,18.27
2022-08-22T05:43:36.554Z,18.40
2022-08-22T05:45:46.221Z,18.44
2022-08-22T05:46:44.198Z,18.50
2022-08-22T05:47:24.223Z,18.91
2022-08-22T05:48:04.270Z,18.94
2022-08-22T05:48:44.094Z,19.20
2022-08-22T05:49:38.982Z,19.16
2022-08-22T05:50:18.340Z,19.49
2022-08-22T05:51:03.671Z,19.56
2022-08-22T05:51:47.380Z,19.83
2022-08-22T05:52:42.810Z,19.84
2022-08-22T05:53:40.738Z,19.84
2022-08-22T05:54:17.455Z,19.91
2022-08-22T05:55:04.930Z,19.96
2022-08-22T05:56:09.268Z,19.79
2022-08-22T05:56:50.909Z,19.65
2022-08-22T05:57:35.339Z,19.53
2022-08-22T05:58:43.298Z,19.74
2022-08-22T05:59:23.998Z,19.98
2022-08-22T06:00:15.943Z,19.76
2022-08-22T06:00:59.636Z,19.68
2022-08-22T06:01:38.409Z,19.43
2022-08-22T06:02:21.550Z,19.28
2022-08-22T06:03:11.829Z,19.33
2022-08-22T06:04:15.664Z,19.45
2022-08-22T06:04:54.774Z,19.24
2022-08-22T06:05:30.839Z,19.59
2022-08-22T06:06:11.645Z,19.41
2022-08-22T06:06:56.164Z,19.35
2022-08-22T06:07:45.064Z,19.09
2022-08-22T06:08:21.598Z,18.96
2022-08-22T06:09:04.431Z,19.06
2022-08-22T06:09:41.913Z,18.99
2022-08-22T06:10:29.877Z,18.98
2022-08-22T06:11:14.143Z,18.94
2022-08-22T06:11:55.378Z,18.88
2022-08-22T06:12:36.520Z,18.80
2022-08-22T06:13:41.498Z,18.90
2022-08-22T06:14:25.729Z,19.11
2022-08-22T06:15:11.805Z,19.36
2022-08-22T06:15:49.367Z,19.33
2022-08-22T06:16:37.497Z,19.50
2022-08-22T06:17:15.246Z,19.62
2022-08-22T06:17:51.101Z,19.71
2022-08-22T06:18:26.216Z,19.85
2022-08-22T06:18:59.197Z,19.93
2022-08-22T06:19:35.867Z,19.73
2022-08-22T06:20:09.635Z,19.83
2022-08-22T06:20:49.656Z,20.02
2022-08-22T06:21:39.620Z,19.79
2022-08-22T06:22:18.793Z,19.62
2022-08-22T06:22:55.035Z,19.58
2022-08-22T06:23:41.634Z,19.65
2022-08-22T06:24:21.315Z,19.82
2022-08-22T06:24:56.590Z,19.98
2022-08-22T06:25:33.520Z,20.17
2022-08-22T06:26:20.731Z,20.50
2022-08-22T06:26:58.666Z,20.32
2022-08-22T06:27:31.700Z,20.93
2022-08-22T06:28:09.049Z,21.14
2022-08-22T06:28:55.076Z,21.23
2022-08-22T06:29:41.400Z,21.72
2022-08-22T06:30:16.269Z,21.72
2022-08-22T06:30:50.897Z,21.83
2022-08-22T06:31:30.953Z,21.99
2022-08-22T06:32:12.555Z,21.63
2022-08-22T06:32:59.019Z,21.56
2022-08-22T06:33:45.442Z,22.01
2022-08-22T06:34:24.325Z,21.90
2022-08-22T06:35:02.085Z,21.83
2022-08-22T06:35:58.071Z,22.15
2022-08-22T06:36:34.125Z,22.55
2022-08-22T06:37:10.671Z,22.29
2022-08-22T06:37:46.021Z,22.61
2022-08-22T06:38:20.218Z,23.26
2022-08-22T06:39:16.500Z,23.26
2022-08-22T06:39:50.993Z,23.06
2022-08-22T06:40:24.716Z,23.44
2022-08-22T06:40:59.773Z,23.13
2022-08-22T06:41:36.259Z,22.97
2022-08-22T06:42:16.705Z,22.87
2022-08-22T06:42:51.790Z,23.37
2022-08-22T06:43:25.391Z,23.70
2022-08-22T06:43:59.312Z,23.48
2022-08-22T06:44:46.662Z,23.86
2022-08-22T06:45:22.057Z,23.80
2022-08-22T06:45:54.707Z,24.26
2022-08-22T06:46:31.698Z,23.91
2022-08-22T06:47:08.359Z,23.47
2022-08-22T06:47:50.267Z,23.68
2022-08-22T06:48:24.207Z,24.21
2022-08-22T06:48:57.761Z,23.96
2022-08-22T06:49:34.851Z,23.97
2022-08-22T06:50:19.396Z,24.42
2022-08-22T06:50:57.046Z,24.79
2022-08-22T06:51:29.811Z,24.86
2022-08-22T06:52:06.483Z,23.40
2022-08-22T06:52:53.647Z,22.95
2022-08-22T06:53:47.700Z,23.02
2022-08-22T06:54:28.080Z,23.99
2022-08-22T06:55:09.218Z,24.48
2022-08-22T06:55:46.214Z,24.57
2022-08-22T06:56:33.933Z,24.99
2022-08-22T06:57:12.158Z,24.02
2022-08-22T06:58:18.242Z,23.03
2022-08-22T06:58:54.665Z,23.86
2022-08-22T06:59:28.988Z,24.48
2022-08-22T07:00:06.343Z,23.94
2022-08-22T07:00:41.943Z,24.18
2022-08-22T07:01:21.835Z,23.90
2022-08-22T07:02:08.089Z,23.61
2022-08-22T07:02:43.940Z,23.54
2022-08-22T07:03:26.789Z,23.86
2022-08-22T07:04:03.679Z,24.34
2022-08-22T07:04:36.899Z,24.07
2022-08-22T07:05:25.069Z,24.35
2022-08-22T07:05:57.788Z,24.05
2022-08-22T07:06:35.915Z,24.17
2022-08-22T07:07:10.140Z,23.78
2022-08-22T07:07:42.003Z,22.98
2022-08-22T07:08:16.155Z,23.72
2022-08-22T07:08:53.326Z,23.35
2022-08-22T07:09:34.692Z,23.40
2022-08-22T07:10:12.577Z,22.57
2022-08-22T07:10:55.533Z,22.89
2022-08-22T07:11:37.022Z,22.65
2022-08-22T07:12:18.347Z,23.70
2022-08-22T07:12:54.044Z,24.15
2022-08-22T07:13:29.301Z,24.59
2022-08-22T07:14:05.484Z,24.86
2022-08-22T07:14:43.019Z,25.26
2022-08-22T07:15:36.640Z,25.04
2022-08-22T07:16:09.085Z,25.14
2022-08-22T07:16:49.841Z,24.77
2022-08-22T07:17:25.837Z,25.10
2022-08-22T07:18:00.600Z,25.07
2022-08-22T07:18:33.188Z,24.11
2022-08-22T07:19:06.168Z,23.79
2022-08-22T07:19:41.533Z,24.09
2022-08-22T07:20:28.033Z,23.89
2022-08-22T07:21:04.491Z,24.83
2022-08-22T07:21:48.073Z,24.28
2022-08-22T07:22:31.948Z,24.31
2022-08-22T07:23:10.425Z,25.44
2022-08-22T07:23:48.189Z,25.64
2022-08-22T07:24:28.827Z,25.68
2022-08-22T07:25:07.706Z,25.05
2022-08-22T07:26:18.219Z,25.21
2022-08-22T07:27:02.802Z,24.77
2022-08-22T07:27:48.962Z,25.64
2022-08-22T07:28:51.566Z,25.27
2022-08-22T07:29:52.246Z,26.36
2022-08-22T07:30:34.468Z,25.48
2022-08-22T07:31:20.617Z,25.94
2022-08-22T07:32:06.389Z,26.13
2022-08-22T07:33:25.644Z,25.44
2022-08-22T07:33:59.415Z,25.83
2022-08-22T07:34:56.470Z,26.38
2022-08-22T07:35:38.944Z,26.51
2022-08-22T07:37:05.935Z,26.69
2022-08-22T07:38:35.970Z,26.65
2022-08-22T07:39:33.636Z,26.82
2022-08-22T07:40:23.231Z,26.16
2022-08-22T07:41:03.239Z,26.22
2022-08-22T07:41:59.542Z,26.51
2022-08-22T07:42:55.288Z,26.36
2022-08-22T07:43:33.066Z,27.18
2022-08-22T07:44:20.224Z,26.92
2022-08-22T07:45:01.979Z,27.17
2022-08-22T07:45:52.277Z,26.45
2022-08-22T07:46:38.818Z,25.69
2022-08-22T07:47:17.971Z,26.03
2022-08-22T07:48:25.541Z,26.41
2022-08-22T07:49:12.122Z,26.17
2022-08-22T07:49:55.044Z,26.18
2022-08-22T07:50:58.615Z,26.17
2022-08-22T07:51:35.896Z,26.61
2022-08-22T07:52:11.300Z,26.15
2022-08-22T07:52:45.950Z,26.26
2022-08-22T07:53:28.351Z,26.60
2022-08-22T07:54:05.328Z,27.34
2022-08-22T07:54:47.788Z,27.22
2022-08-22T07:55:23.050Z,27.63
2022-08-22T07:55:57.661Z,27.37
2022-08-22T07:56:35.102Z,27.55
2022-08-22T07:57:14.612Z,26.85
2022-08-22T07:58:01.629Z,26.85
2022-08-22T07:58:39.542Z,27.04
2022-08-22T07:59:18.582Z,27.31
2022-08-22T07:59:56.291Z,27.71
2022-08-22T08:00:31.841Z,27.74
2022-08-22T08:01:03.745Z,27.40
2022-08-22T08:01:37.398Z,27.40
2022-08-22T08:02:13.932Z,27.23
2022-08-22T08:02:52.179Z,28.13
2022-08-22T08:03:28.183Z,28.29
2022-08-22T08:04:03.968Z,28.41
2022-08-22T08:04:40.153Z,28.68
2022-08-22T08:05:14.322Z,27.69
2022-08-22T08:05:46.386Z,28.03
2022-08-22T08:06:20.248Z,28.73
2022-08-22T08:06:54.803Z,28.77
2022-08-22T08:07:29.974Z,28.11
2022-08-22T08:08:08.584Z,28.58
2022-08-22T08:08:45.188Z,28.92
2022-08-22T08:09:19.625Z,28.44
2022-08-22T08:10:00.501Z,29.03
2022-08-22T08:10:37.030Z,29.28
2022-08-22T08:11:11.964Z,28.94
2022-08-22T08:11:44.916Z,28.52
2022-08-22T08:12:21.894Z,28.71
2022-08-22T08:13:02.264Z,28.86
2022-08-22T08:13:38.532Z,27.36
2022-08-22T08:14:15.428Z,27.92
2022-08-22T08:14:53.421Z,28.64
2022-08-22T08:15:26.042Z,28.78
2022-08-22T08:15:58.924Z,28.33
2022-08-22T08:16:47.546Z,27.86
2022-08-22T08:17:27.825Z,27.64
2022-08-22T08:18:08.641Z,28.49
2022-08-22T08:18:40.729Z,28.49
2022-08-22T08:19:18.996Z,28.52
2022-08-22T08:19:51.943Z,28.72
2022-08-22T08:20:29.501Z,28.68
2022-08-22T08:21:08.421Z,27.61
2022-08-22T08:21:46.988Z,27.33
2022-08-22T08:22:23.623Z,28.33
2022-08-22T08:22:57.582Z,28.48
2022-08-22T08:23:39.071Z,28.44
2022-08-22T08:24:15.503Z,28.41
2022-08-22T08:24:49.510Z,28.49
2022-08-22T08:25:28.001Z,28.56
2022-08-22T08:26:13.165Z,28.40
2022-08-22T08:27:12.421Z,27.06
2022-08-22T08:28:03.682Z,27.03
2022-08-22T08:28:41.529Z,27.67
2022-08-22T08:29:18.676Z,27.35
2022-08-22T08:30:02.528Z,27.02
2022-08-22T08:30:43.215Z,26.96
2022-08-22T08:31:20.437Z,27.07
2022-08-22T08:31:52.831Z,26.92
2022-08-22T08:32:30.122Z,26.80
2022-08-22T08:33:24.388Z,27.00
2022-08-22T08:34:05.158Z,26.89
2022-08-22T08:34:38.860Z,26.69
2022-08-22T08:35:21.131Z,26.33
2022-08-22T08:36:10.049Z,25.70
2022-08-22T08:36:53.104Z,25.81
2022-08-22T08:37:41.228Z,25.79
2022-08-22T08:38:18.677Z,25.56
2022-08-22T08:39:12.560Z,25.61
2022-08-22T08:39:50.565Z,25.69
2022-08-22T08:40:31.727Z,25.57
2022-08-22T08:41:30.852Z,25.67
2022-08-22T08:42:13.424Z,25.77
2022-08-22T08:43:21.140Z,25.77
2022-08-22T08:44:12.809Z,25.60
2022-08-22T08:45:22.566Z,25.80
2022-08-22T08:46:12.419Z,26.04
2022-08-22T08:47:22.012Z,25.85
2022-08-22T08:48:16.333Z,25.77
2022-08-22T08:49:30.850Z,25.74
2022-08-22T08:50:30.247Z,25.44
2022-08-22T08:51:14.355Z,25.44
2022-08-22T08:52:13.445Z,25.33
2022-08-22T08:53:16.646Z,25.38
2022-08-22T08:54:06.460Z,25.49
2022-08-22T08:55:30.359Z,25.56
2022-08-22T08:56:19.747Z,25.49
2022-08-22T08:57:10.832Z,25.52
2022-08-22T08:57:51.562Z,25.63
2022-08-22T08:58:54.836Z,25.82
2022-08-22T08:59:44.223Z,25.44
2022-08-22T09:00:29.137Z,25.30
2022-08-22T09:01:27.578Z,25.19
2022-08-22T09:02:20.438Z,25.30
2022-08-22T09:03:10.597Z,24.65
2022-08-22T09:04:32.045Z,25.16
2022-08-22T09:05:30.839Z,25.29
2022-08-22T09:06:38.791Z,25.38
2022-08-22T09:07:42.289Z,25.32
2022-08-22T09:08:35.915Z,25.54
2022-08-22T09:09:22.618Z,25.82
2022-08-22T09:10:11.281Z,26.00
2022-08-22T09:11:28.316Z,26.32
2022-08-22T09:12:08.555Z,26.46
2022-08-22T09:12:54.298Z,26.31
2022-08-22T09:13:40.799Z,25.85
2022-08-22T09:14:31.458Z,25.90
2022-08-22T09:15:19.721Z,26.09
2022-08-22T09:16:17.252Z,26.06
2022-08-22T09:17:11.783Z,26.21
2022-08-22T09:18:05.331Z,25.86
2022-08-22T09:18:56.734Z,26.17
2022-08-22T09:19:46.822Z,25.90
2022-08-22T09:20:24.974Z,25.98
2022-08-22T09:21:16.630Z,25.67
2022-08-22T09:22:21.136Z,25.74
2022-08-22T09:23:17.414Z,25.73
2022-08-22T09:23:49.211Z,25.60
2022-08-22T09:24:53.295Z,25.87
2022-08-22T09:25:55.128Z,26.50
2022-08-22T09:26:58.018Z,27.02
2022-08-22T09:27:39.354Z,27.17
2022-08-22T09:28:13.949Z,26.87
2022-08-22T09:29:19.216Z,26.86
2022-08-22T09:30:05.004Z,26.68
2022-08-22T09:31:21.845Z,26.61
2022-08-22T09:32:33.771Z,27.12
2022-08-22T09:33:14.923Z,27.14
2022-08-22T09:33:56.240Z,27.35
2022-08-22T09:34:37.935Z,27.31
2022-08-22T09:35:32.906Z,26.80
2022-08-22T09:36:20.640Z,26.70
2022-08-22T09:36:52.531Z,26.68
2022-08-22T09:37:42.791Z,26.35
2022-08-22T09:38:56.292Z,26.39
2022-08-22T09:39:38.754Z,26.87
2022-08-22T09:40:17.110Z,26.83
2022-08-22T09:41:00.119Z,26.86
2022-08-22T09:41:54.936Z,26.61
2022-08-22T09:42:46.352Z,27.00
2022-08-22T09:43:34.505Z,26.79
2022-08-22T09:44:19.036Z,26.58
2022-08-22T09:45:28.442Z,26.48
2022-08-22T09:46:29.461Z,27.06
2022-08-22T09:47:34.398Z,27.26
2022-08-22T09:48:29.734Z,26.85
2022-08-22T09:49:34.104Z,26.89
2022-08-22T09:50:20.120Z,27.00
2022-08-22T09:51:32.443Z,27.59
2022-08-22T09:52:15.655Z,27.89
2022-08-22T09:53:25.966Z,28.00
2022-08-22T09:54:13.843Z,28.60
2022-08-22T09:54:53.570Z,29.08
2022-08-22T09:55:40.437Z,29.36
2022-08-22T09:56:21.524Z,28.72
2022-08-22T09:57:20.040Z,29.23
2022-08-22T09:58:13.506Z,29.86
2022-08-22T09:58:59.094Z,29.41
2022-08-22T09:59:50.441Z,29.54
2022-08-22T10:00:31.414Z,29.93
2022-08-22T10:01:23.835Z,30.14
2022-08-22T10:02:15.306Z,30.29